Time;durP1;ratioP1;P1;durP2;ratioP2;P2;SDS_P1;SDS_P2;PMS_P1;PMS_P2;Temp;Humidity;BMP_temperature;BMP_pressure;BME280_temperature;BME280_humidity;BME280_pressure;Samples;Min_cycle;Max_cycle;Signal;HPM_P1;HPM_P2
2023/01/17 00:00:11;;;;;;;16.20;3.00;;;;;;;14.02;nan;101697.47;4882781;29;20446;-85
2023/01/17 00:02:39;;;;;;;9.07;1.80;;;;;;;14.04;nan;101694.53;4881978;29;20462;-87
2023/01/17 00:10:44;;;;;;;13.13;3.03;;;;;;;14.00;nan;101696.78;4957202;28;20461;-86
2023/01/17 00:13:13;;;;;;;20.87;2.83;;;;;;;13.96;nan;101711.97;4942439;28;20446;-86
2023/01/17 00:15:42;;;;;;;19.53;2.77;;;;;;;13.98;nan;101717.28;4967774;28;20457;-85
2023/01/17 00:18:12;;;;;;;7.67;1.30;;;;;;;13.89;nan;101686.28;4958797;28;20955;-86
2023/01/17 01:34:14;;;;;;;11.00;1.53;;;;;;;13.78;nan;101574.13;4943154;29;20454;-85
2023/01/17 01:36:42;;;;;;;10.90;1.40;;;;;;;13.71;nan;101585.03;4929422;28;20446;-85
2023/01/17 01:39:11;;;;;;;9.47;1.30;;;;;;;13.61;nan;101562.53;4922811;29;20466;-86
2023/01/17 01:41:39;;;;;;;9.27;1.37;;;;;;;13.62;nan;101569.75;4954865;28;20462;-85
2023/01/17 01:44:49;;;;;;;7.87;1.10;;;;;;;13.60;nan;101555.34;4923297;29;20455;-85
2023/01/17 01:47:29;;;;;;;11.90;2.00;;;;;;;13.55;nan;101556.97;4945842;28;20795;-86
2023/01/17 01:49:58;;;;;;;11.87;1.57;;;;;;;13.52;nan;101549.94;4955743;28;20446;-86
2023/01/17 01:52:27;;;;;;;8.40;1.73;;;;;;;13.55;nan;101549.56;4954605;28;20455;-85
2023/01/17 01:55:19;;;;;;;12.13;1.60;;;;;;;13.46;nan;101542.50;4922861;29;20459;-86
2023/01/17 01:57:49;;;;;;;23.10;4.60;;;;;;;13.55;nan;101552.31;4957581;28;20451;-85
2023/01/17 02:00:23;;;;;;;12.57;2.23;;;;;;;13.62;nan;101553.25;4939860;28;20455;-85
2023/01/17 02:02:53;;;;;;;13.57;2.33;;;;;;;13.59;nan;101550.88;4894854;29;20941;-86
2023/01/17 02:05:22;;;;;;;13.70;2.63;;;;;;;13.59;nan;101542.66;4895361;29;20561;-85
2023/01/17 02:08:11;;;;;;;13.17;2.33;;;;;;;13.63;nan;101557.72;4880047;29;20593;-85
2023/01/17 02:10:40;;;;;;;11.10;2.07;;;;;;;13.60;nan;101536.13;4864960;29;20501;-85
2023/01/17 02:13:08;;;;;;;16.30;3.00;;;;;;;13.65;nan;101530.03;4880239;29;20450;-85
2023/01/17 02:16:07;;;;;;;21.57;2.53;;;;;;;13.67;nan;101541.66;4882595;29;20465;-85
2023/01/17 02:19:02;;;;;;;25.87;3.30;;;;;;;13.67;nan;101550.75;4880919;29;20563;-86
2023/01/17 02:21:44;;;;;;;11.93;2.40;;;;;;;13.75;nan;101550.66;4880784;29;20969;-85
2023/01/17 02:24:59;;;;;;;16.20;3.03;;;;;;;13.76;nan;101559.75;4865042;29;20454;-85
2023/01/17 02:28:03;;;;;;;13.80;2.00;;;;;;;13.75;nan;101528.66;4872071;29;20991;-86
2023/01/17 02:30:33;;;;;;;9.07;1.53;;;;;;;13.73;nan;101516.16;4902350;29;20951;-85
2023/01/17 02:33:09;;;;;;;12.60;1.90;;;;;;;13.75;nan;101516.81;4911365;29;20458;-85
2023/01/17 02:35:45;;;;;;;10.90;1.50;;;;;;;13.71;nan;101513.63;4868607;29;20462;-85
2023/01/17 02:38:15;;;;;;;10.37;1.77;;;;;;;13.66;nan;101516.09;4907292;29;20452;-85
2023/01/17 02:40:54;;;;;;;10.03;2.53;;;;;;;13.63;nan;101513.75;4902478;29;20456;-85
2023/01/17 02:43:22;;;;;;;9.07;1.50;;;;;;;13.60;nan;101518.78;4902272;29;21032;-85
2023/01/17 02:45:50;;;;;;;11.33;2.60;;;;;;;13.56;nan;101515.56;4870959;29;20480;-85
2023/01/17 02:48:20;;;;;;;10.23;1.83;;;;;;;13.59;nan;101517.06;4901891;29;20465;-85
2023/01/17 02:51:10;;;;;;;13.60;2.90;;;;;;;13.60;nan;101518.78;4885963;29;20492;-86
2023/01/17 02:54:16;;;;;;;17.13;2.60;;;;;;;13.62;nan;101516.69;4895519;29;21024;-84
2023/01/17 02:56:54;;;;;;;20.77;3.07;;;;;;;13.62;nan;101513.94;4891610;29;20452;-85
2023/01/17 02:59:49;;;;;;;12.83;2.10;;;;;;;13.64;nan;101507.22;4921042;29;20446;-85
2023/01/17 03:03:04;;;;;;;21.23;2.87;;;;;;;13.64;nan;101509.13;4901683;29;20448;-85
2023/01/17 03:05:33;;;;;;;15.03;2.57;;;;;;;13.63;nan;101497.28;4861093;29;20495;-85
2023/01/17 03:08:01;;;;;;;14.77;2.53;;;;;;;13.52;nan;101485.94;4861069;29;20991;-85
2023/01/17 03:10:31;;;;;;;25.30;3.40;;;;;;;13.59;nan;101486.88;4860668;29;20462;-85
2023/01/17 03:12:59;;;;;;;20.80;2.80;;;;;;;13.55;nan;101480.06;4845885;29;20447;-85
2023/01/17 03:15:27;;;;;;;25.33;3.60;;;;;;;13.58;nan;101475.03;4845724;29;20455;-85
2023/01/17 03:17:57;;;;;;;27.53;3.50;;;;;;;13.58;nan;101486.00;4845757;29;20455;-86
2023/01/17 03:20:26;;;;;;;22.40;3.30;;;;;;;13.60;nan;101483.94;4845762;29;20458;-86
2023/01/17 03:22:53;;;;;;;24.77;3.50;;;;;;;13.59;nan;101471.25;4845300;29;20595;-86
2023/01/17 03:25:22;;;;;;;18.67;3.10;;;;;;;13.66;nan;101465.81;4844865;29;20447;-85
2023/01/17 03:27:49;;;;;;;22.30;2.70;;;;;;;13.64;nan;101474.25;4860330;29;20463;-86
2023/01/17 03:30:20;;;;;;;23.73;2.90;;;;;;;13.70;nan;101478.94;4845128;29;20444;-86
2023/01/17 03:32:48;;;;;;;23.40;3.03;;;;;;;13.69;nan;101466.25;4846720;29;20522;-86
2023/01/17 03:35:17;;;;;;;22.10;2.73;;;;;;;13.62;nan;101448.88;4863717;29;20506;-85
2023/01/17 03:37:44;;;;;;;15.40;2.20;;;;;;;13.75;nan;101459.97;4863629;29;20808;-86
2023/01/17 03:40:12;;;;;;;15.60;2.20;;;;;;;13.73;nan;101456.56;4866566;28;20978;-85
2023/01/17 03:42:41;;;;;;;20.73;2.47;;;;;;;13.83;nan;101478.25;4925765;28;20459;-85
2023/01/17 03:45:09;;;;;;;27.03;3.10;;;;;;;13.85;nan;101459.66;4942537;28;20928;-86
2023/01/17 03:47:37;;;;;;;11.37;2.10;;;;;;;13.90;nan;101450.81;4958268;28;20537;-86
2023/01/17 03:50:05;;;;;;;8.53;2.33;;;;;;;13.86;nan;101444.00;4927406;28;20458;-85
2023/01/17 03:52:33;;;;;;;26.43;2.50;;;;;;;13.78;nan;101437.59;4942904;28;20445;-86
2023/01/17 03:55:01;;;;;;;10.20;2.20;;;;;;;13.73;nan;101431.84;4941116;28;20454;-85
2023/01/17 03:57:30;;;;;;;19.10;2.20;;;;;;;13.68;nan;101434.34;4942285;28;20964;-86
2023/01/17 03:59:59;;;;;;;19.33;2.20;;;;;;;13.64;nan;101429.47;4957975;28;21023;-85
2023/01/17 04:02:27;;;;;;;13.50;2.30;;;;;;;13.63;nan;101427.75;4975782;28;20446;-85
2023/01/17 04:04:55;;;;;;;9.20;2.20;;;;;;;13.59;nan;101430.03;4926257;28;20828;-86
2023/01/17 04:07:22;;;;;;;16.57;2.37;;;;;;;13.51;nan;101397.19;4958213;28;20494;-85
2023/01/17 04:09:50;;;;;;;10.80;2.70;;;;;;;13.59;nan;101413.56;4942848;28;20504;-86
2023/01/17 04:12:18;;;;;;;28.23;2.50;;;;;;;13.61;nan;101402.38;4927044;28;20454;-86
2023/01/17 04:14:47;;;;;;;19.70;3.40;;;;;;;13.61;nan;101392.25;4939491;28;20524;-85
2023/01/17 04:17:18;;;;;;;43.07;4.97;;;;;;;13.64;nan;101394.59;4929441;28;20466;-86
2023/01/17 04:19:47;;;;;;;16.07;3.20;;;;;;;13.62;nan;101382.97;4955676;28;20454;-85
2023/01/17 04:22:14;;;;;;;18.47;2.50;;;;;;;13.62;nan;101380.22;4956845;28;20944;-84
2023/01/17 04:24:42;;;;;;;29.13;4.17;;;;;;;13.73;nan;101389.78;4941153;28;20469;-85
2023/01/17 04:27:13;;;;;;;20.47;2.97;;;;;;;13.73;nan;101374.16;4942615;28;20490;-86
2023/01/17 04:29:40;;;;;;;19.83;2.47;;;;;;;13.77;nan;101369.13;4927993;28;20453;-85
2023/01/17 04:32:09;;;;;;;22.27;3.33;;;;;;;13.85;nan;101365.38;4958207;28;20454;-85
2023/01/17 04:34:37;;;;;;;16.00;2.53;;;;;;;13.86;nan;101359.66;4957899;28;20799;-85
2023/01/17 04:37:05;;;;;;;23.03;2.87;;;;;;;13.90;nan;101351.88;4941851;28;20528;-86
2023/01/17 04:39:32;;;;;;;15.53;2.37;;;;;;;13.92;nan;101347.03;4942995;28;20472;-86
2023/01/17 04:42:01;;;;;;;22.73;3.10;;;;;;;13.95;nan;101335.63;4958067;28;20855;-85
2023/01/17 04:44:29;;;;;;;27.13;3.10;;;;;;;14.02;nan;101334.63;4942288;28;20944;-85
2023/01/17 04:47:00;;;;;;;17.43;3.47;;;;;;;13.93;nan;101322.09;4958136;28;20477;-85
2023/01/17 04:49:28;;;;;;;34.73;4.33;;;;;;;14.06;nan;101354.31;4939185;28;20488;-85
2023/01/17 04:51:59;;;;;;;17.23;3.00;;;;;;;14.12;nan;101351.59;4923353;28;20455;-86
2023/01/17 04:54:26;;;;;;;16.53;3.10;;;;;;;14.23;nan;101374.94;4941490;28;20449;-86
2023/01/17 04:56:56;;;;;;;16.53;2.80;;;;;;;14.22;nan;101355.91;4939606;28;21018;-86
2023/01/17 04:59:23;;;;;;;22.80;3.87;;;;;;;14.16;nan;101333.66;4944587;28;20450;-86
2023/01/17 05:01:51;;;;;;;15.47;2.50;;;;;;;14.21;nan;101337.72;4926709;28;20508;-85
2023/01/17 05:04:19;;;;;;;20.33;3.07;;;;;;;14.21;nan;101338.56;4938685;28;20539;-85
2023/01/17 05:06:47;;;;;;;16.23;2.50;;;;;;;14.17;nan;101337.25;4923278;28;20483;-85
2023/01/17 05:09:14;;;;;;;20.63;2.60;;;;;;;14.08;nan;101321.97;4907190;29;20487;-85
2023/01/17 05:11:42;;;;;;;36.23;3.83;;;;;;;14.12;nan;101335.09;4938871;28;20451;-86
2023/01/17 05:14:10;;;;;;;21.43;2.90;;;;;;;14.09;nan;101334.66;4938746;28;20972;-85
2023/01/17 05:16:38;;;;;;;14.60;1.73;;;;;;;14.11;nan;101330.66;4923151;28;20949;-86
2023/01/17 05:19:06;;;;;;;16.80;3.10;;;;;;;14.12;nan;101328.75;4938742;28;21062;-85
2023/01/17 05:21:34;;;;;;;11.60;2.33;;;;;;;14.08;nan;101314.56;4938497;29;20451;-85
2023/01/17 05:24:02;;;;;;;13.77;2.60;;;;;;;14.09;nan;101329.16;4938628;28;20580;-85
2023/01/17 05:26:30;;;;;;;29.33;3.33;;;;;;;14.12;nan;101323.25;4933515;29;20478;-85
2023/01/17 05:28:58;;;;;;;17.50;2.93;;;;;;;14.12;nan;101329.63;4935880;28;20446;-85
2023/01/17 05:31:27;;;;;;;15.80;2.53;;;;;;;14.11;nan;101327.91;4925893;28;20450;-85
2023/01/17 05:33:54;;;;;;;21.60;4.07;;;;;;;14.09;nan;101324.50;4949340;28;20458;-85
2023/01/17 05:36:22;;;;;;;21.13;3.40;;;;;;;14.10;nan;101317.13;4935197;29;20463;-85
2023/01/17 05:38:50;;;;;;;24.77;3.53;;;;;;;14.06;nan;101318.56;4954078;29;20509;-85
2023/01/17 05:41:18;;;;;;;25.60;4.70;;;;;;;14.09;nan;101329.16;4955982;28;20961;-86
2023/01/17 05:43:46;;;;;;;17.80;3.10;;;;;;;14.08;nan;101311.81;4926320;28;20453;-85
2023/01/17 05:46:14;;;;;;;26.43;4.07;;;;;;;14.11;nan;101327.06;4957263;28;21122;-85
2023/01/17 05:48:43;;;;;;;25.50;3.73;;;;;;;14.10;nan;101308.88;4943911;28;20458;-85
2023/01/17 05:51:11;;;;;;;20.13;3.90;;;;;;;14.11;nan;101316.06;4911706;29;20455;-85
2023/01/17 05:53:38;;;;;;;26.23;3.50;;;;;;;14.11;nan;101310.56;4953966;28;20451;-86
2023/01/17 05:56:08;;;;;;;28.40;3.90;;;;;;;14.07;nan;101325.75;4927513;28;20811;-86
2023/01/17 05:58:36;;;;;;;22.80;3.03;;;;;;;14.15;nan;101318.22;4974151;28;20453;-86
2023/01/17 06:01:04;;;;;;;19.70;3.40;;;;;;;14.11;nan;101316.91;4956661;28;20941;-85
2023/01/17 06:03:31;;;;;;;31.40;3.57;;;;;;;14.13;nan;101324.97;4925563;28;20446;-86
2023/01/17 06:05:59;;;;;;;28.43;3.97;;;;;;;14.13;nan;101330.47;4944168;29;20459;-85
2023/01/17 06:08:27;;;;;;;17.80;2.80;;;;;;;14.09;nan;101308.03;4919146;29;20476;-85
2023/01/17 06:10:58;;;;;;;21.60;3.53;;;;;;;14.10;nan;101314.38;4919183;29;20836;-86
2023/01/17 06:13:26;;;;;;;21.43;4.13;;;;;;;14.20;nan;101319.50;4921049;29;20460;-85
2023/01/17 06:16:01;;;;;;;35.87;3.60;;;;;;;14.04;nan;101287.72;4949202;28;20501;-85
2023/01/17 06:18:30;;;;;;;28.23;3.77;;;;;;;14.09;nan;101294.28;4937469;28;20493;-85
2023/01/17 06:20:58;;;;;;;27.00;3.80;;;;;;;14.10;nan;101293.22;4953411;28;20470;-86
2023/01/17 06:23:27;;;;;;;34.83;4.13;;;;;;;14.00;nan;101281.78;4949557;28;20460;-86
2023/01/17 06:25:57;;;;;;;33.30;4.03;;;;;;;14.08;nan;101288.97;4918995;29;20444;-85
2023/01/17 06:28:24;;;;;;;27.60;3.47;;;;;;;14.04;nan;101288.56;4927508;29;20488;-86
2023/01/17 06:30:52;;;;;;;29.13;4.47;;;;;;;14.06;nan;101291.09;4933906;28;20447;-86
2023/01/17 06:33:20;;;;;;;25.03;3.90;;;;;;;14.07;nan;101281.78;4938031;29;20453;-85
2023/01/17 06:35:49;;;;;;;24.53;3.50;;;;;;;14.11;nan;101283.09;4925916;29;20470;-85
2023/01/17 06:38:17;;;;;;;26.10;4.47;;;;;;;14.11;nan;101288.59;4926574;29;20942;-85
2023/01/17 06:40:45;;;;;;;17.73;3.20;;;;;;;14.10;nan;101282.22;4924989;29;20582;-85
2023/01/17 06:43:13;;;;;;;20.83;2.80;;;;;;;14.09;nan;101282.44;4936162;29;20553;-86
2023/01/17 06:45:41;;;;;;;27.57;3.17;;;;;;;14.16;nan;101297.06;4934323;29;20456;-85
2023/01/17 06:48:09;;;;;;;37.53;5.00;;;;;;;14.17;nan;101293.28;4943375;28;20489;-86
2023/01/17 06:50:37;;;;;;;23.27;4.47;;;;;;;14.17;nan;101285.88;4918478;29;20456;-84
2023/01/17 06:53:05;;;;;;;26.77;4.67;;;;;;;14.16;nan;101297.06;4942504;29;20454;-86
2023/01/17 06:55:34;;;;;;;32.00;3.30;;;;;;;14.21;nan;101278.06;4918285;29;20467;-86
2023/01/17 06:58:01;;;;;;;18.73;3.80;;;;;;;14.23;nan;101286.97;4934104;29;21254;-85
2023/01/17 07:00:30;;;;;;;21.90;4.07;;;;;;;14.17;nan;101282.28;4919988;29;20963;-85
2023/01/17 07:03:00;;;;;;;45.43;4.30;;;;;;;14.24;nan;101285.88;4930497;29;20512;-85
2023/01/17 07:05:28;;;;;;;29.77;3.80;;;;;;;14.15;nan;101267.88;4906447;29;20943;-86
2023/01/17 07:07:57;;;;;;;30.33;4.27;;;;;;;14.25;nan;101287.59;4938290;29;20891;-87
2023/01/17 07:10:25;;;;;;;16.23;2.53;;;;;;;14.30;nan;101278.72;4937846;29;20443;-85
2023/01/17 07:12:59;;;;;;;17.37;3.47;;;;;;;14.34;nan;101272.63;4937565;29;20458;-86
2023/01/17 07:15:27;;;;;;;21.97;2.93;;;;;;;14.37;nan;101265.88;4938130;29;20479;-86
2023/01/17 07:17:56;;;;;;;43.93;6.27;;;;;;;14.32;nan;101271.13;4936984;29;20460;-86
2023/01/17 07:20:24;;;;;;;21.43;5.10;;;;;;;14.36;nan;101275.16;4921956;29;20460;-85
2023/01/17 07:22:53;;;;;;;32.47;4.00;;;;;;;14.42;nan;101296.38;4928008;29;20452;-85
2023/01/17 07:25:21;;;;;;;30.13;3.70;;;;;;;14.39;nan;101303.13;4941064;29;20867;-86
2023/01/17 07:27:56;;;;;;;16.87;2.87;;;;;;;14.41;nan;101306.53;4937036;28;20854;-85
2023/01/17 07:30:24;;;;;;;22.10;3.10;;;;;;;14.41;nan;101305.69;4966202;28;20455;-85
2023/01/17 07:32:52;;;;;;;18.43;2.40;;;;;;;14.37;nan;101296.97;4922289;28;20463;-86
2023/01/17 07:35:22;;;;;;;17.47;2.53;;;;;;;14.32;nan;101285.72;4924456;28;20462;-86
2023/01/17 07:37:51;;;;;;;15.13;2.57;;;;;;;14.33;nan;101286.56;4955607;28;20443;-87
2023/01/17 07:40:20;;;;;;;26.87;3.00;;;;;;;14.29;nan;101290.78;4945707;29;20447;-85
2023/01/17 07:42:47;;;;;;;16.73;3.03;;;;;;;14.29;nan;101288.03;4905567;29;20456;-85
2023/01/17 07:45:16;;;;;;;36.37;4.07;;;;;;;14.25;nan;101282.09;4926910;29;20467;-86
2023/01/17 07:47:44;;;;;;;24.47;3.70;;;;;;;14.28;nan;101283.56;4921135;29;20487;-86
2023/01/17 07:50:13;;;;;;;19.90;3.67;;;;;;;14.28;nan;101292.69;4922163;29;20456;-86
2023/01/17 07:52:41;;;;;;;21.90;3.80;;;;;;;14.32;nan;101293.13;4944019;29;20462;-86
2023/01/17 07:55:09;;;;;;;11.23;2.67;;;;;;;14.33;nan;101298.41;4940020;29;20459;-86
2023/01/17 07:57:38;;;;;;;18.47;2.47;;;;;;;14.31;nan;101284.03;4951538;29;20448;-87
2023/01/17 08:00:06;;;;;;;23.53;2.87;;;;;;;14.36;nan;101280.66;4942137;28;20462;-87
2023/01/17 08:02:34;;;;;;;22.47;2.43;;;;;;;14.42;nan;101291.72;4937079;28;20455;-87
2023/01/17 08:05:03;;;;;;;24.90;2.80;;;;;;;14.36;nan;101284.25;4938899;29;20451;-87
2023/01/17 08:07:32;;;;;;;23.27;3.33;;;;;;;14.41;nan;101291.94;4923991;29;20521;-87
2023/01/17 08:10:06;;;;;;;20.80;3.33;;;;;;;14.44;nan;101278.59;4938354;29;20843;-88
2023/01/17 08:12:34;;;;;;;24.47;2.97;;;;;;;14.42;nan;101300.00;4953741;28;20477;-87
2023/01/17 08:15:03;;;;;;;23.53;4.10;;;;;;;14.48;nan;101285.38;4924157;29;20474;-87
2023/01/17 08:17:31;;;;;;;25.07;2.80;;;;;;;14.44;nan;101286.84;4908576;29;20455;-87
2023/01/17 08:19:59;;;;;;;32.87;4.40;;;;;;;14.38;nan;101282.16;4906925;28;20467;-89
2023/01/17 08:22:29;;;;;;;28.97;4.10;;;;;;;14.46;nan;101282.00;4919494;29;20460;-88
2023/01/17 08:24:57;;;;;;;28.67;3.60;;;;;;;14.46;nan;101278.41;4937000;29;20970;-86
2023/01/17 08:27:25;;;;;;;27.43;3.47;;;;;;;14.57;nan;101279.72;4936051;29;20849;-87
2023/01/17 08:29:54;;;;;;;22.03;3.53;;;;;;;14.56;nan;101286.28;4935929;29;20460;-85
2023/01/17 08:32:23;;;;;;;21.70;3.47;;;;;;;14.61;nan;101295.59;4934917;29;20474;-85
2023/01/17 08:34:50;;;;;;;29.87;4.27;;;;;;;14.64;nan;101288.81;4948318;28;20451;-84
2023/01/17 08:37:19;;;;;;;22.30;4.10;;;;;;;14.68;nan;101290.09;4921575;29;20819;-86
2023/01/17 08:39:49;;;;;;;28.33;4.10;;;;;;;14.70;nan;101290.75;4906237;28;20463;-87
2023/01/17 08:42:17;;;;;;;25.90;3.97;;;;;;;14.67;nan;101282.91;4923255;29;20825;-85
2023/01/17 08:44:47;;;;;;;28.80;4.50;;;;;;;14.69;nan;101287.16;4930919;29;20454;-86
2023/01/17 08:47:16;;;;;;;26.90;4.43;;;;;;;14.75;nan;101291.84;4922961;29;20482;-86
2023/01/17 08:49:45;;;;;;;19.53;4.23;;;;;;;14.74;nan;101292.88;4938250;29;20465;-85
2023/01/17 08:52:14;;;;;;;26.47;4.50;;;;;;;14.81;nan;101303.91;4922611;29;20450;-85
2023/01/17 08:54:42;;;;;;;23.13;3.33;;;;;;;14.80;nan;101285.72;4938199;29;21008;-86
2023/01/17 08:57:11;;;;;;;28.60;3.97;;;;;;;14.97;nan;101299.94;4923114;29;20505;-86
2023/01/17 08:59:41;;;;;;;29.03;3.10;;;;;;;15.06;nan;101310.50;4935937;28;20451;-86
2023/01/17 09:02:18;;;;;;;27.87;3.53;;;;;;;15.11;nan;101299.72;4914374;28;20482;-86
2023/01/17 09:04:47;;;;;;;20.50;3.57;;;;;;;15.15;nan;101303.75;4938396;29;20469;-86
2023/01/17 09:07:18;;;;;;;35.70;3.90;;;;;;;15.22;nan;101309.25;4920636;29;20490;-87
2023/01/17 09:09:45;;;;;;;28.03;3.40;;;;;;;15.26;nan;101321.56;4954222;28;20518;-86
2023/01/17 09:12:13;;;;;;;25.53;3.80;;;;;;;15.33;nan;101314.16;4938877;29;20455;-85
2023/01/17 09:14:41;;;;;;;30.47;4.03;;;;;;;15.42;nan;101315.63;4938997;29;20458;-88
2023/01/17 09:17:12;;;;;;;28.13;3.80;;;;;;;15.47;nan;101313.09;4961725;28;20458;-86
2023/01/17 09:19:44;;;;;;;28.53;3.33;;;;;;;15.51;nan;101308.84;4942311;28;20446;-87
2023/01/17 09:22:14;;;;;;;32.67;4.47;;;;;;;15.49;nan;101324.75;4928428;28;20454;-87
2023/01/17 09:24:42;;;;;;;30.37;4.40;;;;;;;15.51;nan;101321.78;4943295;28;20462;-89
2023/01/17 09:27:13;;;;;;;25.10;4.17;;;;;;;15.52;nan;101316.06;4919146;28;20462;-87
2023/01/17 09:29:42;;;;;;;22.50;2.77;;;;;;;15.53;nan;101320.50;4954174;28;20442;-87
2023/01/17 09:32:15;;;;;;;18.83;2.87;;;;;;;15.59;nan;101337.31;4938987;28;20439;-88
2023/01/17 09:34:45;;;;;;;14.43;3.13;;;;;;;15.54;nan;101351.66;4957622;28;20446;-87
2023/01/17 09:37:13;;;;;;;14.73;2.23;;;;;;;15.45;nan;101337.25;4939164;28;20442;-88
2023/01/17 09:39:43;;;;;;;27.33;4.27;;;;;;;15.43;nan;101342.13;4956997;28;20453;-89
2023/01/17 09:42:31;;;;;;;29.33;3.30;;;;;;;15.44;nan;101334.69;4941916;28;20434;-89
2023/01/17 09:45:02;;;;;;;22.40;3.27;;;;;;;15.46;nan;101321.56;4949485;29;20447;-89
2023/01/17 09:48:04;;;;;;;13.57;2.63;;;;;;;15.57;nan;101340.25;4925333;29;20864;-89
2023/01/17 09:50:55;;;;;;;18.97;3.77;;;;;;;15.68;nan;101356.16;4954391;28;20463;-88
2023/01/17 09:53:25;;;;;;;21.17;3.70;;;;;;;15.79;nan;101344.47;4928891;28;20450;-87
2023/01/17 09:56:03;;;;;;;22.17;4.40;;;;;;;15.90;nan;101334.72;4949473;28;20507;-87
2023/01/17 09:58:37;;;;;;;23.57;4.00;;;;;;;16.08;nan;101336.81;4958711;28;20464;-87
2023/01/17 10:01:23;;;;;;;16.30;3.87;;;;;;;16.15;nan;101338.50;4954158;28;20466;-87
2023/01/17 10:04:03;;;;;;;22.03;2.67;;;;;;;16.13;nan;101339.75;4957085;28;20449;-88
2023/01/17 10:06:57;;;;;;;26.47;3.17;;;;;;;16.08;nan;101332.13;4941633;28;20457;-87
2023/01/17 10:10:01;;;;;;;20.93;3.00;;;;;;;16.07;nan;101341.47;4937660;29;20847;-87
2023/01/17 10:12:39;;;;;;;26.40;3.73;;;;;;;16.10;nan;101331.91;4970757;28;20462;-88
2023/01/17 10:15:38;;;;;;;18.63;3.47;;;;;;;16.12;nan;101329.78;4974434;28;20438;-88
2023/01/17 10:18:45;;;;;;;38.73;4.67;;;;;;;16.27;nan;101326.78;4939592;28;20458;-88
2023/01/17 10:21:25;;;;;;;32.17;4.80;;;;;;;16.44;nan;101342.63;4865416;29;20461;-88
2023/01/17 10:24:07;;;;;;;13.33;2.53;;;;;;;16.54;nan;101343.03;4880485;29;20457;-88
2023/01/17 10:26:35;;;;;;;19.90;3.60;;;;;;;16.48;nan;101327.34;4878748;29;20462;-89
2023/01/17 10:29:11;;;;;;;26.93;4.00;;;;;;;16.68;nan;101331.97;4866242;29;20501;-90
2023/01/17 10:31:43;;;;;;;19.20;2.97;;;;;;;16.69;nan;101333.66;4880227;29;20895;-88
2023/01/17 10:34:26;;;;;;;26.20;4.20;;;;;;;16.74;nan;101340.19;4878978;29;20453;-88
2023/01/17 10:37:10;;;;;;;16.40;3.47;;;;;;;16.66;nan;101336.84;4884128;29;20453;-88
2023/01/17 10:39:39;;;;;;;26.10;4.10;;;;;;;16.51;nan;101342.63;4882866;29;20520;-89
2023/01/17 10:42:13;;;;;;;20.30;4.83;;;;;;;16.33;nan;101368.16;4868994;29;20464;-88
2023/01/17 10:45:27;;;;;;;26.53;2.73;;;;;;;16.18;nan;101367.53;4868777;29;20472;-89
2023/01/17 10:48:15;;;;;;;9.57;1.80;;;;;;;16.02;nan;101354.19;4808460;29;20479;-88
2023/01/17 10:51:03;;;;;;;11.47;1.13;;;;;;;15.92;nan;101367.59;4858965;29;20459;-89
2023/01/17 10:53:54;;;;;;;9.20;1.73;;;;;;;15.93;nan;101352.75;4843486;29;20470;-88
2023/01/17 10:56:24;;;;;;;10.03;1.80;;;;;;;15.96;nan;101357.84;4883396;29;20513;-88
2023/01/17 10:59:10;;;;;;;18.83;2.37;;;;;;;15.98;nan;101355.69;4868571;29;20452;-88
2023/01/17 11:01:40;;;;;;;18.30;2.63;;;;;;;16.07;nan;101362.69;4896562;29;20468;-88
2023/01/17 11:04:36;;;;;;;23.33;2.83;;;;;;;16.08;nan;101347.81;4880533;29;20442;-88
2023/01/17 11:07:28;;;;;;;16.40;3.07;;;;;;;16.21;nan;101359.66;4870342;29;20450;-88
2023/01/17 11:09:56;;;;;;;17.70;3.00;;;;;;;16.31;nan;101362.00;4864248;29;20454;-88
2023/01/17 11:12:40;;;;;;;24.10;3.87;;;;;;;16.49;nan;101373.19;4914141;28;20450;-88
2023/01/17 11:15:08;;;;;;;20.13;3.27;;;;;;;16.56;nan;101351.91;4925536;29;20451;-87
2023/01/17 11:18:02;;;;;;;19.90;3.10;;;;;;;16.65;nan;101360.84;4957595;29;20459;-87
2023/01/17 11:20:34;;;;;;;18.73;3.57;;;;;;;16.57;nan;101353.59;4928619;29;21074;-87
2023/01/17 11:23:13;;;;;;;21.73;5.03;;;;;;;16.64;nan;101353.63;4924714;29;20811;-89
2023/01/17 11:26:01;;;;;;;22.67;4.20;;;;;;;16.58;nan;101344.25;4941603;29;20446;-88
2023/01/17 11:28:33;;;;;;;24.43;4.60;;;;;;;16.63;nan;101342.78;4926103;29;20494;-88
2023/01/17 11:31:03;;;;;;;26.33;4.60;;;;;;;16.71;nan;101339.81;4942382;29;21017;-88
2023/01/17 11:34:13;;;;;;;31.63;4.77;;;;;;;16.75;nan;101349.31;4925913;29;20447;-87
2023/01/17 11:36:34;;;;;;;28.73;6.47;;;;;;;16.69;nan;101375.06;4943134;29;20462;-89
2023/01/17 11:39:04;;;;;;;54.93;8.07;;;;;;;16.67;nan;101357.88;4935799;28;20458;-89
2023/01/17 11:41:37;;;;;;;65.13;9.93;;;;;;;16.55;nan;101347.47;4959823;28;20450;-88
2023/01/17 11:44:29;;;;;;;54.50;8.90;;;;;;;16.43;nan;101374.03;4942453;28;20953;-88
2023/01/17 11:47:12;;;;;;;61.70;9.13;;;;;;;16.34;nan;101339.50;4958798;28;20458;-88
2023/01/17 11:49:44;;;;;;;53.63;7.80;;;;;;;16.28;nan;101348.63;4955044;28;20501;-87
2023/01/17 11:52:31;;;;;;;59.37;9.13;;;;;;;16.34;nan;101353.28;4940000;28;20454;-87
2023/01/17 11:55:00;;;;;;;45.50;7.37;;;;;;;16.35;nan;101355.00;4941049;28;20458;-88
2023/01/17 11:57:32;;;;;;;44.03;7.70;;;;;;;16.55;nan;101339.19;4955299;29;20459;-88
2023/01/17 12:00:00;;;;;;;46.90;8.00;;;;;;;16.62;nan;101349.34;4909469;29;20451;-88
2023/01/17 12:02:55;;;;;;;46.23;9.30;;;;;;;16.64;nan;101348.09;4901388;29;20452;-88
2023/01/17 12:05:29;;;;;;;60.43;9.70;;;;;;;16.67;nan;101355.09;4901024;29;20462;-88
2023/01/17 12:08:26;;;;;;;42.97;6.77;;;;;;;16.63;nan;101337.25;4923407;29;20487;-88
2023/01/17 12:11:26;;;;;;;48.13;7.10;;;;;;;16.62;nan;101332.78;4919929;29;20553;-87
2023/01/17 12:14:15;;;;;;;48.43;8.23;;;;;;;16.63;nan;101321.56;4919090;29;20473;-89
2023/01/17 12:17:06;;;;;;;35.67;7.40;;;;;;;16.65;nan;101337.91;4935031;29;20455;-87
2023/01/17 12:19:44;;;;;;;42.90;6.87;;;;;;;16.74;nan;101333.84;4934835;29;20456;-88
2023/01/17 12:22:39;;;;;;;35.20;6.13;;;;;;;16.81;nan;101326.34;4924637;29;20484;-88
2023/01/17 12:25:28;;;;;;;45.30;6.03;;;;;;;17.02;nan;101328.78;4916530;29;20453;-87
2023/01/17 12:28:52;;;;;;;32.87;5.77;;;;;;;17.12;nan;101329.16;4950316;28;20455;-88
2023/01/17 12:31:32;;;;;;;32.50;6.00;;;;;;;17.15;nan;101339.75;4929940;29;20458;-87
2023/01/17 12:34:25;;;;;;;38.37;5.70;;;;;;;17.18;nan;101300.63;4916317;29;20509;-87
2023/01/17 12:37:17;;;;;;;35.53;5.87;;;;;;;17.30;nan;101281.44;4933736;28;20455;-88
2023/01/17 12:40:16;;;;;;;30.17;5.37;;;;;;;17.36;nan;101271.38;4920677;29;20958;-87
2023/01/17 12:43:14;;;;;;;30.63;6.20;;;;;;;17.42;nan;101282.38;4933919;29;20459;-88
2023/01/17 12:46:07;;;;;;;34.00;7.17;;;;;;;17.49;nan;101285.09;4929006;29;20802;-88
2023/01/17 12:48:39;;;;;;;36.30;5.77;;;;;;;17.54;nan;101243.78;4951328;29;20562;-88
2023/01/17 12:51:15;;;;;;;30.47;6.63;;;;;;;17.54;nan;101260.34;4935835;29;20981;-87
2023/01/17 12:54:01;;;;;;;29.27;5.03;;;;;;;17.61;nan;101269.44;4938810;28;20454;-87
2023/01/17 12:56:50;;;;;;;29.70;6.00;;;;;;;17.64;nan;101252.44;4953746;29;20443;-87
2023/01/17 12:59:29;;;;;;;31.80;5.50;;;;;;;17.67;nan;101260.28;4904334;29;20453;-87
2023/01/17 13:02:19;;;;;;;30.60;5.73;;;;;;;17.59;nan;101246.72;4889745;29;20550;-88
2023/01/17 13:04:59;;;;;;;23.70;4.20;;;;;;;17.57;nan;101248.84;4883293;29;20557;-87
2023/01/17 13:07:45;;;;;;;27.50;4.60;;;;;;;17.59;nan;101241.19;4899745;29;20477;-87
2023/01/17 13:10:22;;;;;;;25.67;5.00;;;;;;;17.61;nan;101233.50;4899572;29;20999;-87
2023/01/17 13:12:50;;;;;;;23.47;3.87;;;;;;;17.79;nan;101241.00;4882919;29;20458;-88
2023/01/17 13:15:20;;;;;;;28.33;4.90;;;;;;;17.80;nan;101262.91;4896715;29;20972;-87
2023/01/17 13:18:10;;;;;;;27.67;4.67;;;;;;;17.79;nan;101229.94;4899780;29;21027;-88
2023/01/17 13:21:15;;;;;;;23.93;5.10;;;;;;;17.95;nan;101241.25;4886898;29;20870;-87
2023/01/17 13:23:58;;;;;;;29.23;5.20;;;;;;;17.98;nan;101244.63;4923827;28;21025;-87
2023/01/17 13:26:44;;;;;;;31.30;5.17;;;;;;;17.93;nan;101223.19;4974055;28;21023;-88